sensor_id;sensor_type;location;lat;lon;timestamp;P1;durP1;ratioP1;P2;durP2;ratioP2
4424;SDS011;2225;53.568;13.266;2023-01-28T00:01:53;3.73;;;0.90;;
4424;SDS011;2225;53.568;13.266;2023-01-28T00:04:20;2.60;;;1.00;;
4424;SDS011;2225;53.568;13.266;2023-01-28T00:06:47;1.80;;;0.80;;
4424;SDS011;2225;53.568;13.266;2023-01-28T00:09:14;3.30;;;1.00;;
4424;SDS011;2225;53.568;13.266;2023-01-28T00:11:41;3.63;;;1.30;;
4424;SDS011;2225;53.568;13.266;2023-01-28T00:14:09;4.10;;;1.00;;
4424;SDS011;2225;53.568;13.266;2023-01-28T00:16:37;6.20;;;1.07;;
4424;SDS011;2225;53.568;13.266;2023-01-28T00:19:04;3.07;;;1.00;;
4424;SDS011;2225;53.568;13.266;2023-01-28T00:21:31;3.00;;;0.80;;
4424;SDS011;2225;53.568;13.266;2023-01-28T00:23:58;2.90;;;1.10;;
4424;SDS011;2225;53.568;13.266;2023-01-28T00:26:25;3.63;;;1.13;;
4424;SDS011;2225;53.568;13.266;2023-01-28T00:28:52;2.77;;;1.00;;
4424;SDS011;2225;53.568;13.266;2023-01-28T00:31:20;8.30;;;1.17;;
4424;SDS011;2225;53.568;13.266;2023-01-28T00:33:50;5.90;;;1.40;;
4424;SDS011;2225;53.568;13.266;2023-01-28T00:36:17;3.37;;;1.27;;
4424;SDS011;2225;53.568;13.266;2023-01-28T00:38:50;2.63;;;1.00;;
4424;SDS011;2225;53.568;13.266;2023-01-28T00:41:19;6.40;;;1.37;;
4424;SDS011;2225;53.568;13.266;2023-01-28T00:43:49;6.67;;;1.70;;
4424;SDS011;2225;53.568;13.266;2023-01-28T00:46:17;6.30;;;1.27;;
4424;SDS011;2225;53.568;13.266;2023-01-28T00:48:46;9.33;;;1.77;;
4424;SDS011;2225;53.568;13.266;2023-01-28T00:51:14;3.90;;;1.20;;
4424;SDS011;2225;53.568;13.266;2023-01-28T00:53:43;2.90;;;1.27;;
4424;SDS011;2225;53.568;13.266;2023-01-28T00:56:12;3.17;;;1.47;;
4424;SDS011;2225;53.568;13.266;2023-01-28T00:58:41;3.50;;;1.20;;
4424;SDS011;2225;53.568;13.266;2023-01-28T01:01:12;4.17;;;1.17;;
4424;SDS011;2225;53.568;13.266;2023-01-28T01:03:43;2.63;;;1.00;;
4424;SDS011;2225;53.568;13.266;2023-01-28T01:06:11;3.30;;;1.27;;
4424;SDS011;2225;53.568;13.266;2023-01-28T01:08:40;3.00;;;0.97;;
4424;SDS011;2225;53.568;13.266;2023-01-28T01:11:09;3.57;;;0.90;;
4424;SDS011;2225;53.568;13.266;2023-01-28T01:13:37;2.10;;;1.00;;
4424;SDS011;2225;53.568;13.266;2023-01-28T01:16:05;2.83;;;1.17;;
4424;SDS011;2225;53.568;13.266;2023-01-28T01:18:35;3.23;;;1.30;;
4424;SDS011;2225;53.568;13.266;2023-01-28T01:21:02;2.97;;;1.20;;
4424;SDS011;2225;53.568;13.266;2023-01-28T01:23:38;7.50;;;1.70;;
4424;SDS011;2225;53.568;13.266;2023-01-28T01:26:05;4.17;;;1.20;;
4424;SDS011;2225;53.568;13.266;2023-01-28T01:28:33;2.60;;;1.10;;
4424;SDS011;2225;53.568;13.266;2023-01-28T01:31:00;5.47;;;1.00;;
4424;SDS011;2225;53.568;13.266;2023-01-28T01:33:33;4.23;;;1.20;;
4424;SDS011;2225;53.568;13.266;2023-01-28T01:36:00;2.03;;;0.90;;
4424;SDS011;2225;53.568;13.266;2023-01-28T01:38:28;4.97;;;1.17;;
4424;SDS011;2225;53.568;13.266;2023-01-28T01:40:55;4.37;;;1.00;;
4424;SDS011;2225;53.568;13.266;2023-01-28T01:43:43;5.60;;;1.10;;
4424;SDS011;2225;53.568;13.266;2023-01-28T01:47:02;2.57;;;0.90;;
4424;SDS011;2225;53.568;13.266;2023-01-28T01:49:20;2.70;;;1.07;;
4424;SDS011;2225;53.568;13.266;2023-01-28T01:52:02;5.43;;;0.90;;
4424;SDS011;2225;53.568;13.266;2023-01-28T01:54:34;2.27;;;0.90;;
4424;SDS011;2225;53.568;13.266;2023-01-28T01:57:04;2.97;;;1.10;;
4424;SDS011;2225;53.568;13.266;2023-01-28T01:59:36;3.57;;;0.97;;
4424;SDS011;2225;53.568;13.266;2023-01-28T02:02:06;2.83;;;1.10;;
4424;SDS011;2225;53.568;13.266;2023-01-28T02:04:38;2.30;;;1.07;;
4424;SDS011;2225;53.568;13.266;2023-01-28T02:07:14;3.50;;;1.10;;
4424;SDS011;2225;53.568;13.266;2023-01-28T02:09:42;4.80;;;1.33;;
4424;SDS011;2225;53.568;13.266;2023-01-28T02:12:13;3.73;;;0.93;;
4424;SDS011;2225;53.568;13.266;2023-01-28T02:15:04;5.37;;;1.00;;
4424;SDS011;2225;53.568;13.266;2023-01-28T02:17:39;3.33;;;1.27;;
4424;SDS011;2225;53.568;13.266;2023-01-28T02:20:11;2.00;;;0.80;;
4424;SDS011;2225;53.568;13.266;2023-01-28T02:29:10;1.80;;;0.83;;
4424;SDS011;2225;53.568;13.266;2023-01-28T02:34:50;2.13;;;0.87;;
4424;SDS011;2225;53.568;13.266;2023-01-28T02:37:46;3.10;;;0.87;;
4424;SDS011;2225;53.568;13.266;2023-01-28T02:40:22;5.90;;;1.53;;
4424;SDS011;2225;53.568;13.266;2023-01-28T02:42:56;11.27;;;1.53;;
4424;SDS011;2225;53.568;13.266;2023-01-28T02:45:25;3.43;;;1.10;;
4424;SDS011;2225;53.568;13.266;2023-01-28T02:48:15;4.80;;;1.27;;
4424;SDS011;2225;53.568;13.266;2023-01-28T02:51:04;9.80;;;1.40;;
4424;SDS011;2225;53.568;13.266;2023-01-28T02:53:51;3.00;;;1.10;;
4424;SDS011;2225;53.568;13.266;2023-01-28T02:59:12;3.50;;;1.40;;
4424;SDS011;2225;53.568;13.266;2023-01-28T03:02:07;2.90;;;1.03;;
4424;SDS011;2225;53.568;13.266;2023-01-28T03:04:45;3.80;;;1.23;;
4424;SDS011;2225;53.568;13.266;2023-01-28T03:07:34;2.73;;;1.17;;
4424;SDS011;2225;53.568;13.266;2023-01-28T03:10:05;3.73;;;1.23;;
4424;SDS011;2225;53.568;13.266;2023-01-28T03:12:36;2.77;;;1.30;;
4424;SDS011;2225;53.568;13.266;2023-01-28T03:15:26;2.77;;;1.10;;
4424;SDS011;2225;53.568;13.266;2023-01-28T03:18:19;4.30;;;1.10;;
4424;SDS011;2225;53.568;13.266;2023-01-28T03:21:14;3.60;;;1.07;;
4424;SDS011;2225;53.568;13.266;2023-01-28T03:24:08;4.73;;;1.67;;
4424;SDS011;2225;53.568;13.266;2023-01-28T03:30:47;3.00;;;1.00;;
4424;SDS011;2225;53.568;13.266;2023-01-28T03:33:42;4.47;;;1.07;;
4424;SDS011;2225;53.568;13.266;2023-01-28T03:36:29;3.90;;;1.10;;
4424;SDS011;2225;53.568;13.266;2023-01-28T03:39:39;2.50;;;1.20;;
4424;SDS011;2225;53.568;13.266;2023-01-28T03:42:09;3.40;;;1.23;;
4424;SDS011;2225;53.568;13.266;2023-01-28T03:45:02;3.93;;;1.23;;
4424;SDS011;2225;53.568;13.266;2023-01-28T03:47:31;7.93;;;1.10;;
4424;SDS011;2225;53.568;13.266;2023-01-28T03:50:01;3.03;;;1.00;;
4424;SDS011;2225;53.568;13.266;2023-01-28T03:52:38;1.67;;;0.90;;
4424;SDS011;2225;53.568;13.266;2023-01-28T03:55:19;3.60;;;1.30;;
4424;SDS011;2225;53.568;13.266;2023-01-28T03:57:46;2.30;;;0.77;;
4424;SDS011;2225;53.568;13.266;2023-01-28T04:00:14;7.40;;;1.10;;
4424;SDS011;2225;53.568;13.266;2023-01-28T04:02:43;4.83;;;1.27;;
4424;SDS011;2225;53.568;13.266;2023-01-28T04:05:14;4.13;;;1.30;;
4424;SDS011;2225;53.568;13.266;2023-01-28T04:07:47;3.00;;;1.60;;
4424;SDS011;2225;53.568;13.266;2023-01-28T04:10:26;2.37;;;1.00;;
4424;SDS011;2225;53.568;13.266;2023-01-28T04:12:56;4.83;;;0.87;;
4424;SDS011;2225;53.568;13.266;2023-01-28T04:15:24;2.50;;;1.13;;
4424;SDS011;2225;53.568;13.266;2023-01-28T04:17:53;2.53;;;1.00;;
4424;SDS011;2225;53.568;13.266;2023-01-28T04:20:24;2.67;;;1.20;;
4424;SDS011;2225;53.568;13.266;2023-01-28T04:22:52;4.63;;;1.23;;
4424;SDS011;2225;53.568;13.266;2023-01-28T04:25:21;3.80;;;1.30;;
4424;SDS011;2225;53.568;13.266;2023-01-28T04:27:48;3.80;;;0.90;;
4424;SDS011;2225;53.568;13.266;2023-01-28T04:30:20;5.43;;;1.27;;
4424;SDS011;2225;53.568;13.266;2023-01-28T04:33:14;1.77;;;0.77;;
4424;SDS011;2225;53.568;13.266;2023-01-28T04:35:53;3.10;;;1.10;;
4424;SDS011;2225;53.568;13.266;2023-01-28T04:38:30;2.80;;;1.10;;
4424;SDS011;2225;53.568;13.266;2023-01-28T04:41:04;4.43;;;0.90;;
4424;SDS011;2225;53.568;13.266;2023-01-28T04:43:33;2.40;;;0.80;;
4424;SDS011;2225;53.568;13.266;2023-01-28T04:46:24;8.30;;;1.17;;
4424;SDS011;2225;53.568;13.266;2023-01-28T04:49:00;2.10;;;1.00;;
4424;SDS011;2225;53.568;13.266;2023-01-28T04:51:37;3.07;;;1.17;;
4424;SDS011;2225;53.568;13.266;2023-01-28T04:54:12;4.50;;;1.27;;
4424;SDS011;2225;53.568;13.266;2023-01-28T04:56:39;3.80;;;1.30;;
4424;SDS011;2225;53.568;13.266;2023-01-28T04:59:07;3.40;;;1.00;;
4424;SDS011;2225;53.568;13.266;2023-01-28T05:01:34;3.53;;;1.10;;
4424;SDS011;2225;53.568;13.266;2023-01-28T05:04:02;4.53;;;1.70;;
4424;SDS011;2225;53.568;13.266;2023-01-28T05:06:33;3.20;;;1.37;;
4424;SDS011;2225;53.568;13.266;2023-01-28T05:09:07;1.73;;;0.70;;
4424;SDS011;2225;53.568;13.266;2023-01-28T05:11:34;2.83;;;1.00;;
4424;SDS011;2225;53.568;13.266;2023-01-28T05:14:04;1.83;;;0.80;;
4424;SDS011;2225;53.568;13.266;2023-01-28T05:16:38;2.30;;;0.90;;
4424;SDS011;2225;53.568;13.266;2023-01-28T05:19:05;2.07;;;0.73;;
4424;SDS011;2225;53.568;13.266;2023-01-28T05:21:37;4.77;;;0.80;;
4424;SDS011;2225;53.568;13.266;2023-01-28T05:24:10;1.33;;;0.70;;
4424;SDS011;2225;53.568;13.266;2023-01-28T05:26:37;2.37;;;0.80;;
4424;SDS011;2225;53.568;13.266;2023-01-28T05:29:04;3.57;;;1.23;;
4424;SDS011;2225;53.568;13.266;2023-01-28T05:31:31;2.30;;;1.27;;
4424;SDS011;2225;53.568;13.266;2023-01-28T05:33:59;2.17;;;0.83;;
4424;SDS011;2225;53.568;13.266;2023-01-28T05:36:25;3.10;;;0.90;;
4424;SDS011;2225;53.568;13.266;2023-01-28T05:38:54;2.67;;;0.70;;
4424;SDS011;2225;53.568;13.266;2023-01-28T05:41:21;2.67;;;0.80;;
4424;SDS011;2225;53.568;13.266;2023-01-28T05:43:54;3.60;;;0.93;;
4424;SDS011;2225;53.568;13.266;2023-01-28T05:46:47;5.00;;;1.10;;
4424;SDS011;2225;53.568;13.266;2023-01-28T05:49:34;2.43;;;0.97;;
4424;SDS011;2225;53.568;13.266;2023-01-28T05:52:19;2.73;;;0.80;;
4424;SDS011;2225;53.568;13.266;2023-01-28T05:54:46;2.43;;;0.80;;
4424;SDS011;2225;53.568;13.266;2023-01-28T05:57:13;2.60;;;0.70;;
4424;SDS011;2225;53.568;13.266;2023-01-28T05:59:40;4.17;;;1.20;;
4424;SDS011;2225;53.568;13.266;2023-01-28T06:02:07;2.57;;;0.97;;
4424;SDS011;2225;53.568;13.266;2023-01-28T06:04:35;2.97;;;1.00;;
4424;SDS011;2225;53.568;13.266;2023-01-28T06:07:02;3.23;;;0.80;;
4424;SDS011;2225;53.568;13.266;2023-01-28T06:09:31;2.90;;;0.70;;
4424;SDS011;2225;53.568;13.266;2023-01-28T06:11:58;4.67;;;0.90;;
4424;SDS011;2225;53.568;13.266;2023-01-28T06:14:26;4.13;;;0.87;;
4424;SDS011;2225;53.568;13.266;2023-01-28T06:17:12;1.73;;;0.70;;
4424;SDS011;2225;53.568;13.266;2023-01-28T06:19:46;1.93;;;0.60;;
4424;SDS011;2225;53.568;13.266;2023-01-28T06:22:14;3.27;;;0.93;;
4424;SDS011;2225;53.568;13.266;2023-01-28T06:24:41;2.47;;;0.70;;
4424;SDS011;2225;53.568;13.266;2023-01-28T06:27:08;1.70;;;0.50;;
4424;SDS011;2225;53.568;13.266;2023-01-28T06:29:35;1.80;;;0.70;;
4424;SDS011;2225;53.568;13.266;2023-01-28T06:32:02;2.13;;;0.60;;
4424;SDS011;2225;53.568;13.266;2023-01-28T06:34:29;2.73;;;0.90;;
4424;SDS011;2225;53.568;13.266;2023-01-28T06:36:56;2.60;;;0.60;;
4424;SDS011;2225;53.568;13.266;2023-01-28T06:39:23;2.70;;;0.93;;
4424;SDS011;2225;53.568;13.266;2023-01-28T06:41:52;9.33;;;1.30;;
4424;SDS011;2225;53.568;13.266;2023-01-28T06:44:19;1.80;;;0.70;;
4424;SDS011;2225;53.568;13.266;2023-01-28T06:46:48;2.40;;;0.73;;
4424;SDS011;2225;53.568;13.266;2023-01-28T06:49:15;2.10;;;0.87;;
4424;SDS011;2225;53.568;13.266;2023-01-28T06:51:42;3.23;;;1.07;;
4424;SDS011;2225;53.568;13.266;2023-01-28T06:54:09;2.03;;;0.90;;
4424;SDS011;2225;53.568;13.266;2023-01-28T06:56:36;2.57;;;1.10;;
4424;SDS011;2225;53.568;13.266;2023-01-28T06:59:03;5.93;;;1.00;;
4424;SDS011;2225;53.568;13.266;2023-01-28T07:01:30;3.23;;;0.70;;
4424;SDS011;2225;53.568;13.266;2023-01-28T07:03:57;1.83;;;0.90;;
4424;SDS011;2225;53.568;13.266;2023-01-28T07:06:24;4.03;;;0.90;;
4424;SDS011;2225;53.568;13.266;2023-01-28T07:08:51;2.77;;;1.47;;
4424;SDS011;2225;53.568;13.266;2023-01-28T07:11:18;3.13;;;1.00;;
4424;SDS011;2225;53.568;13.266;2023-01-28T07:13:45;6.17;;;0.87;;
4424;SDS011;2225;53.568;13.266;2023-01-28T07:16:12;5.43;;;0.70;;
4424;SDS011;2225;53.568;13.266;2023-01-28T07:18:39;4.87;;;1.27;;
4424;SDS011;2225;53.568;13.266;2023-01-28T07:21:06;2.17;;;0.97;;
4424;SDS011;2225;53.568;13.266;2023-01-28T07:23:33;2.17;;;0.77;;
4424;SDS011;2225;53.568;13.266;2023-01-28T07:26:01;4.67;;;1.10;;
4424;SDS011;2225;53.568;13.266;2023-01-28T07:28:29;1.67;;;0.60;;
4424;SDS011;2225;53.568;13.266;2023-01-28T07:30:56;2.13;;;0.93;;
4424;SDS011;2225;53.568;13.266;2023-01-28T07:33:23;1.70;;;0.70;;
4424;SDS011;2225;53.568;13.266;2023-01-28T07:35:50;2.67;;;1.10;;
4424;SDS011;2225;53.568;13.266;2023-01-28T07:38:17;4.33;;;1.00;;
4424;SDS011;2225;53.568;13.266;2023-01-28T07:40:45;4.50;;;1.13;;
4424;SDS011;2225;53.568;13.266;2023-01-28T07:43:12;5.90;;;0.90;;
4424;SDS011;2225;53.568;13.266;2023-01-28T07:45:39;2.07;;;0.90;;
4424;SDS011;2225;53.568;13.266;2023-01-28T07:48:06;3.00;;;0.60;;
4424;SDS011;2225;53.568;13.266;2023-01-28T07:50:36;1.60;;;0.57;;
4424;SDS011;2225;53.568;13.266;2023-01-28T07:53:04;6.03;;;0.70;;
4424;SDS011;2225;53.568;13.266;2023-01-28T07:55:36;2.63;;;0.90;;
4424;SDS011;2225;53.568;13.266;2023-01-28T07:58:04;2.33;;;1.00;;
4424;SDS011;2225;53.568;13.266;2023-01-28T08:00:33;5.80;;;1.40;;
4424;SDS011;2225;53.568;13.266;2023-01-28T08:03:06;2.60;;;1.00;;
4424;SDS011;2225;53.568;13.266;2023-01-28T08:05:43;2.17;;;1.00;;
4424;SDS011;2225;53.568;13.266;2023-01-28T08:08:13;2.73;;;1.00;;
4424;SDS011;2225;53.568;13.266;2023-01-28T08:10:40;3.10;;;1.10;;
4424;SDS011;2225;53.568;13.266;2023-01-28T08:13:09;3.60;;;1.93;;
4424;SDS011;2225;53.568;13.266;2023-01-28T08:15:37;4.60;;;2.20;;
4424;SDS011;2225;53.568;13.266;2023-01-28T08:18:05;6.00;;;1.90;;
4424;SDS011;2225;53.568;13.266;2023-01-28T08:20:34;6.00;;;2.10;;
4424;SDS011;2225;53.568;13.266;2023-01-28T08:25:38;7.70;;;1.87;;
4424;SDS011;2225;53.568;13.266;2023-01-28T08:28:05;4.47;;;1.33;;
4424;SDS011;2225;53.568;13.266;2023-01-28T08:30:34;2.30;;;0.97;;
4424;SDS011;2225;53.568;13.266;2023-01-28T08:33:03;4.00;;;1.20;;
4424;SDS011;2225;53.568;13.266;2023-01-28T08:35:33;5.83;;;1.70;;
4424;SDS011;2225;53.568;13.266;2023-01-28T08:38:00;5.00;;;1.30;;
4424;SDS011;2225;53.568;13.266;2023-01-28T08:40:28;3.73;;;1.13;;
4424;SDS011;2225;53.568;13.266;2023-01-28T08:42:56;2.73;;;1.07;;
4424;SDS011;2225;53.568;13.266;2023-01-28T08:45:23;3.33;;;1.00;;
4424;SDS011;2225;53.568;13.266;2023-01-28T08:47:54;1.93;;;0.97;;
4424;SDS011;2225;53.568;13.266;2023-01-28T08:50:33;4.00;;;1.33;;
4424;SDS011;2225;53.568;13.266;2023-01-28T08:53:04;4.73;;;1.73;;
4424;SDS011;2225;53.568;13.266;2023-01-28T08:55:43;12.93;;;1.67;;
4424;SDS011;2225;53.568;13.266;2023-01-28T08:58:12;2.90;;;1.30;;
4424;SDS011;2225;53.568;13.266;2023-01-28T09:00:42;3.47;;;1.50;;
4424;SDS011;2225;53.568;13.266;2023-01-28T09:03:12;5.40;;;2.20;;
4424;SDS011;2225;53.568;13.266;2023-01-28T09:05:39;4.33;;;2.03;;
4424;SDS011;2225;53.568;13.266;2023-01-28T09:08:10;6.57;;;2.60;;
4424;SDS011;2225;53.568;13.266;2023-01-28T09:10:40;5.10;;;2.50;;
4424;SDS011;2225;53.568;13.266;2023-01-28T09:13:12;4.90;;;2.10;;
4424;SDS011;2225;53.568;13.266;2023-01-28T09:15:41;9.50;;;2.00;;
4424;SDS011;2225;53.568;13.266;2023-01-28T09:18:08;6.87;;;2.30;;
4424;SDS011;2225;53.568;13.266;2023-01-28T09:20:36;6.40;;;2.57;;
4424;SDS011;2225;53.568;13.266;2023-01-28T09:23:03;8.50;;;3.40;;
4424;SDS011;2225;53.568;13.266;2023-01-28T09:25:31;8.30;;;4.20;;
4424;SDS011;2225;53.568;13.266;2023-01-28T09:27:58;8.50;;;4.20;;
4424;SDS011;2225;53.568;13.266;2023-01-28T09:30:25;6.90;;;4.10;;
4424;SDS011;2225;53.568;13.266;2023-01-28T09:32:53;6.13;;;2.60;;
4424;SDS011;2225;53.568;13.266;2023-01-28T09:35:22;3.30;;;1.60;;
4424;SDS011;2225;53.568;13.266;2023-01-28T09:37:49;2.50;;;1.40;;
4424;SDS011;2225;53.568;13.266;2023-01-28T09:40:24;6.83;;;1.50;;
4424;SDS011;2225;53.568;13.266;2023-01-28T09:45:50;2.40;;;0.77;;
4424;SDS011;2225;53.568;13.266;2023-01-28T09:48:21;3.83;;;1.20;;
4424;SDS011;2225;53.568;13.266;2023-01-28T09:50:55;2.73;;;0.87;;
4424;SDS011;2225;53.568;13.266;2023-01-28T09:53:30;3.43;;;1.10;;
4424;SDS011;2225;53.568;13.266;2023-01-28T09:58:32;2.50;;;1.00;;
4424;SDS011;2225;53.568;13.266;2023-01-28T10:01:21;3.37;;;0.90;;
4424;SDS011;2225;53.568;13.266;2023-01-28T10:04:28;6.40;;;1.20;;
4424;SDS011;2225;53.568;13.266;2023-01-28T10:07:33;6.63;;;1.10;;
4424;SDS011;2225;53.568;13.266;2023-01-28T10:10:32;3.27;;;1.20;;
4424;SDS011;2225;53.568;13.266;2023-01-28T10:16:13;4.40;;;1.10;;
4424;SDS011;2225;53.568;13.266;2023-01-28T10:19:13;3.80;;;1.23;;
4424;SDS011;2225;53.568;13.266;2023-01-28T10:21:51;4.20;;;1.10;;
4424;SDS011;2225;53.568;13.266;2023-01-28T10:27:02;2.63;;;1.30;;
4424;SDS011;2225;53.568;13.266;2023-01-28T10:29:42;3.80;;;1.30;;
4424;SDS011;2225;53.568;13.266;2023-01-28T10:34:56;3.70;;;1.20;;
4424;SDS011;2225;53.568;13.266;2023-01-28T10:37:25;4.60;;;1.47;;
4424;SDS011;2225;53.568;13.266;2023-01-28T10:39:54;3.83;;;1.30;;
4424;SDS011;2225;53.568;13.266;2023-01-28T10:45:06;2.50;;;1.13;;
4424;SDS011;2225;53.568;13.266;2023-01-28T10:50:23;3.30;;;1.40;;
4424;SDS011;2225;53.568;13.266;2023-01-28T10:52:58;2.50;;;1.20;;
4424;SDS011;2225;53.568;13.266;2023-01-28T10:55:33;4.57;;;1.23;;
4424;SDS011;2225;53.568;13.266;2023-01-28T10:58:22;6.07;;;1.20;;
4424;SDS011;2225;53.568;13.266;2023-01-28T11:00:51;5.93;;;2.37;;
4424;SDS011;2225;53.568;13.266;2023-01-28T11:03:25;3.53;;;1.10;;
4424;SDS011;2225;53.568;13.266;2023-01-28T11:05:53;3.03;;;1.30;;
4424;SDS011;2225;53.568;13.266;2023-01-28T11:08:21;2.77;;;1.10;;
4424;SDS011;2225;53.568;13.266;2023-01-28T11:10:50;2.50;;;1.10;;
4424;SDS011;2225;53.568;13.266;2023-01-28T11:13:20;3.73;;;1.27;;
4424;SDS011;2225;53.568;13.266;2023-01-28T11:16:02;5.07;;;1.60;;
4424;SDS011;2225;53.568;13.266;2023-01-28T11:18:37;5.63;;;1.60;;
4424;SDS011;2225;53.568;13.266;2023-01-28T11:21:06;3.50;;;1.20;;
4424;SDS011;2225;53.568;13.266;2023-01-28T11:23:54;4.30;;;1.40;;
4424;SDS011;2225;53.568;13.266;2023-01-28T11:26:29;2.20;;;1.20;;
4424;SDS011;2225;53.568;13.266;2023-01-28T11:29:00;3.53;;;1.70;;
4424;SDS011;2225;53.568;13.266;2023-01-28T11:31:27;2.97;;;1.20;;
4424;SDS011;2225;53.568;13.266;2023-01-28T11:33:55;4.33;;;2.00;;
4424;SDS011;2225;53.568;13.266;2023-01-28T11:36:25;3.93;;;1.90;;
4424;SDS011;2225;53.568;13.266;2023-01-28T11:38:58;6.40;;;1.90;;
4424;SDS011;2225;53.568;13.266;2023-01-28T11:41:41;4.03;;;1.60;;
4424;SDS011;2225;53.568;13.266;2023-01-28T11:44:15;4.93;;;1.80;;
4424;SDS011;2225;53.568;13.266;2023-01-28T11:53:16;3.50;;;1.50;;
4424;SDS011;2225;53.568;13.266;2023-01-28T12:04:44;4.87;;;2.50;;
4424;SDS011;2225;53.568;13.266;2023-01-28T12:12:54;9.03;;;3.10;;
4424;SDS011;2225;53.568;13.266;2023-01-28T12:21:37;5.03;;;2.20;;
4424;SDS011;2225;53.568;13.266;2023-01-28T12:24:49;3.90;;;2.00;;
4424;SDS011;2225;53.568;13.266;2023-01-28T12:27:56;9.13;;;2.90;;
4424;SDS011;2225;53.568;13.266;2023-01-28T12:36:20;13.50;;;2.90;;
4424;SDS011;2225;53.568;13.266;2023-01-28T12:39:30;4.53;;;2.37;;
4424;SDS011;2225;53.568;13.266;2023-01-28T12:42:41;6.20;;;2.53;;
4424;SDS011;2225;53.568;13.266;2023-01-28T12:45:17;8.60;;;2.23;;
4424;SDS011;2225;53.568;13.266;2023-01-28T12:48:08;7.10;;;2.30;;
4424;SDS011;2225;53.568;13.266;2023-01-28T12:50:45;6.40;;;2.40;;
4424;SDS011;2225;53.568;13.266;2023-01-28T12:55:53;6.50;;;2.60;;
4424;SDS011;2225;53.568;13.266;2023-01-28T12:58:34;8.03;;;1.93;;
4424;SDS011;2225;53.568;13.266;2023-01-28T13:01:10;7.03;;;2.20;;
4424;SDS011;2225;53.568;13.266;2023-01-28T13:03:54;7.77;;;2.33;;
4424;SDS011;2225;53.568;13.266;2023-01-28T13:06:34;7.13;;;2.20;;
4424;SDS011;2225;53.568;13.266;2023-01-28T13:09:16;7.17;;;2.20;;
4424;SDS011;2225;53.568;13.266;2023-01-28T13:11:51;5.23;;;2.43;;
4424;SDS011;2225;53.568;13.266;2023-01-28T13:14:23;5.80;;;2.20;;
4424;SDS011;2225;53.568;13.266;2023-01-28T13:16:55;5.80;;;2.07;;
4424;SDS011;2225;53.568;13.266;2023-01-28T13:19:38;9.63;;;2.77;;
4424;SDS011;2225;53.568;13.266;2023-01-28T13:22:10;5.83;;;1.73;;
4424;SDS011;2225;53.568;13.266;2023-01-28T13:27:54;6.17;;;2.20;;
4424;SDS011;2225;53.568;13.266;2023-01-28T13:30:30;4.03;;;1.90;;
4424;SDS011;2225;53.568;13.266;2023-01-28T13:33:04;4.33;;;2.23;;
4424;SDS011;2225;53.568;13.266;2023-01-28T13:35:52;3.20;;;1.70;;
4424;SDS011;2225;53.568;13.266;2023-01-28T13:38:20;4.40;;;1.60;;
4424;SDS011;2225;53.568;13.266;2023-01-28T13:40:52;8.70;;;2.00;;
4424;SDS011;2225;53.568;13.266;2023-01-28T13:43:24;5.50;;;2.27;;
4424;SDS011;2225;53.568;13.266;2023-01-28T13:46:10;4.70;;;2.57;;
4424;SDS011;2225;53.568;13.266;2023-01-28T13:48:53;4.50;;;2.60;;
4424;SDS011;2225;53.568;13.266;2023-01-28T13:51:27;7.40;;;3.07;;
4424;SDS011;2225;53.568;13.266;2023-01-28T13:56:54;11.60;;;4.07;;
4424;SDS011;2225;53.568;13.266;2023-01-28T13:59:34;8.70;;;3.80;;
4424;SDS011;2225;53.568;13.266;2023-01-28T14:02:25;6.60;;;2.67;;
4424;SDS011;2225;53.568;13.266;2023-01-28T14:05:30;6.47;;;3.23;;
4424;SDS011;2225;53.568;13.266;2023-01-28T14:08:25;5.90;;;2.83;;
4424;SDS011;2225;53.568;13.266;2023-01-28T14:14:35;6.30;;;2.57;;
4424;SDS011;2225;53.568;13.266;2023-01-28T14:20:01;4.80;;;2.30;;
4424;SDS011;2225;53.568;13.266;2023-01-28T14:22:30;7.30;;;2.43;;
4424;SDS011;2225;53.568;13.266;2023-01-28T14:24:57;5.53;;;2.40;;
4424;SDS011;2225;53.568;13.266;2023-01-28T14:30:07;4.30;;;2.23;;
4424;SDS011;2225;53.568;13.266;2023-01-28T14:33:08;5.87;;;2.73;;
4424;SDS011;2225;53.568;13.266;2023-01-28T14:35:38;5.63;;;2.27;;
4424;SDS011;2225;53.568;13.266;2023-01-28T14:38:15;12.03;;;2.90;;
4424;SDS011;2225;53.568;13.266;2023-01-28T14:40:49;5.57;;;2.40;;
4424;SDS011;2225;53.568;13.266;2023-01-28T14:43:19;5.10;;;2.70;;
4424;SDS011;2225;53.568;13.266;2023-01-28T14:54:51;7.93;;;3.27;;
4424;SDS011;2225;53.568;13.266;2023-01-28T14:57:36;8.00;;;4.50;;
4424;SDS011;2225;53.568;13.266;2023-01-28T15:00:31;4.00;;;2.40;;
4424;SDS011;2225;53.568;13.266;2023-01-28T15:02:59;9.90;;;3.20;;
4424;SDS011;2225;53.568;13.266;2023-01-28T15:06:00;5.50;;;2.60;;
4424;SDS011;2225;53.568;13.266;2023-01-28T15:08:32;7.70;;;2.87;;
4424;SDS011;2225;53.568;13.266;2023-01-28T15:11:00;4.40;;;2.73;;
4424;SDS011;2225;53.568;13.266;2023-01-28T15:13:29;6.70;;;3.93;;
4424;SDS011;2225;53.568;13.266;2023-01-28T15:16:02;9.50;;;4.33;;
4424;SDS011;2225;53.568;13.266;2023-01-28T15:18:32;6.03;;;3.50;;
4424;SDS011;2225;53.568;13.266;2023-01-28T15:21:02;10.47;;;5.60;;
4424;SDS011;2225;53.568;13.266;2023-01-28T15:23:37;10.07;;;6.07;;
4424;SDS011;2225;53.568;13.266;2023-01-28T15:26:20;9.27;;;5.37;;
4424;SDS011;2225;53.568;13.266;2023-01-28T15:28:54;10.93;;;6.30;;
4424;SDS011;2225;53.568;13.266;2023-01-28T15:31:32;10.37;;;6.70;;
4424;SDS011;2225;53.568;13.266;2023-01-28T15:34:14;9.47;;;5.37;;
4424;SDS011;2225;53.568;13.266;2023-01-28T15:36:45;10.30;;;4.37;;
4424;SDS011;2225;53.568;13.266;2023-01-28T15:39:16;9.57;;;5.70;;
4424;SDS011;2225;53.568;13.266;2023-01-28T15:42:13;8.17;;;5.20;;
4424;SDS011;2225;53.568;13.266;2023-01-28T15:44:34;16.77;;;9.10;;
4424;SDS011;2225;53.568;13.266;2023-01-28T15:47:26;13.80;;;7.73;;
4424;SDS011;2225;53.568;13.266;2023-01-28T15:49:58;14.00;;;6.50;;
4424;SDS011;2225;53.568;13.266;2023-01-28T15:52:42;11.50;;;5.23;;
4424;SDS011;2225;53.568;13.266;2023-01-28T15:58:25;17.03;;;5.53;;
4424;SDS011;2225;53.568;13.266;2023-01-28T16:03:34;14.50;;;7.83;;
4424;SDS011;2225;53.568;13.266;2023-01-28T16:06:07;12.73;;;6.23;;
4424;SDS011;2225;53.568;13.266;2023-01-28T16:08:45;9.13;;;6.13;;
4424;SDS011;2225;53.568;13.266;2023-01-28T16:11:20;10.73;;;5.80;;
4424;SDS011;2225;53.568;13.266;2023-01-28T16:13:50;13.00;;;6.50;;
4424;SDS011;2225;53.568;13.266;2023-01-28T16:16:28;12.30;;;6.87;;
4424;SDS011;2225;53.568;13.266;2023-01-28T16:19:00;12.53;;;6.57;;
4424;SDS011;2225;53.568;13.266;2023-01-28T16:21:31;14.00;;;5.90;;
4424;SDS011;2225;53.568;13.266;2023-01-28T16:24:04;10.77;;;6.03;;
4424;SDS011;2225;53.568;13.266;2023-01-28T16:26:57;12.07;;;5.53;;
4424;SDS011;2225;53.568;13.266;2023-01-28T16:29:32;22.73;;;10.47;;
4424;SDS011;2225;53.568;13.266;2023-01-28T16:31:59;18.13;;;8.50;;
4424;SDS011;2225;53.568;13.266;2023-01-28T16:34:26;15.67;;;7.33;;
4424;SDS011;2225;53.568;13.266;2023-01-28T16:36:55;18.03;;;9.20;;
4424;SDS011;2225;53.568;13.266;2023-01-28T16:39:24;16.07;;;6.63;;
4424;SDS011;2225;53.568;13.266;2023-01-28T16:41:51;10.20;;;6.00;;
4424;SDS011;2225;53.568;13.266;2023-01-28T16:44:19;11.60;;;6.60;;
4424;SDS011;2225;53.568;13.266;2023-01-28T16:46:46;13.67;;;6.03;;
4424;SDS011;2225;53.568;13.266;2023-01-28T16:49:13;10.83;;;5.50;;
4424;SDS011;2225;53.568;13.266;2023-01-28T16:51:40;12.87;;;7.27;;
4424;SDS011;2225;53.568;13.266;2023-01-28T16:54:12;19.50;;;12.57;;
4424;SDS011;2225;53.568;13.266;2023-01-28T16:56:41;14.63;;;9.27;;
4424;SDS011;2225;53.568;13.266;2023-01-28T16:59:12;11.97;;;7.43;;
4424;SDS011;2225;53.568;13.266;2023-01-28T17:01:42;6.50;;;4.33;;
4424;SDS011;2225;53.568;13.266;2023-01-28T17:04:10;6.17;;;3.07;;
4424;SDS011;2225;53.568;13.266;2023-01-28T17:06:41;4.80;;;2.83;;
4424;SDS011;2225;53.568;13.266;2023-01-28T17:09:11;8.13;;;3.27;;
4424;SDS011;2225;53.568;13.266;2023-01-28T17:11:39;5.60;;;3.20;;
4424;SDS011;2225;53.568;13.266;2023-01-28T17:14:06;13.27;;;5.97;;
4424;SDS011;2225;53.568;13.266;2023-01-28T17:16:35;12.23;;;5.87;;
4424;SDS011;2225;53.568;13.266;2023-01-28T17:19:03;14.73;;;4.20;;
4424;SDS011;2225;53.568;13.266;2023-01-28T17:21:30;9.10;;;3.90;;
4424;SDS011;2225;53.568;13.266;2023-01-28T17:23:58;8.87;;;4.43;;